Time;durP1;ratioP1;P1;durP2;ratioP2;P2;SDS_P1;SDS_P2;PMS_P1;PMS_P2;Temp;Humidity;BMP_temperature;BMP_pressure;BME280_temperature;BME280_humidity;BME280_pressure;Samples;Min_cycle;Max_cycle;Signal;HPM_P1;HPM_P2
2022/06/30 00:03:39;;;;;;;12.80;11.60;;;;;;;20.38;70.59;99677.38;216214;1274;141964;-65
2022/06/30 00:08:43;;;;;;;12.80;11.50;;;;;;;20.44;70.40;99678.89;215915;1274;140521;-65
2022/06/30 00:13:48;;;;;;;13.10;11.80;;;;;;;20.49;70.33;99682.24;215977;1274;140757;-65
2022/06/30 00:18:53;;;;;;;12.90;11.70;;;;;;;20.50;70.20;99683.05;214219;1274;141216;-65
2022/06/30 00:23:58;;;;;;;12.60;11.50;;;;;;;20.48;70.35;99675.13;215033;1274;141249;-65
2022/06/30 00:29:02;;;;;;;12.00;10.90;;;;;;;20.48;70.22;99669.56;214900;1274;143365;-64
2022/06/30 00:34:07;;;;;;;12.40;11.20;;;;;;;20.47;70.28;99659.17;215188;1274;142014;-64
2022/06/30 00:39:11;;;;;;;12.50;11.40;;;;;;;20.45;70.13;99668.42;214820;1274;141425;-64
2022/06/30 00:44:15;;;;;;;14.90;13.40;;;;;;;20.42;70.34;99672.61;214148;1274;514876;-63
2022/06/30 00:49:20;;;;;;;13.40;11.80;;;;;;;20.38;70.36;99667.21;214808;1274;151266;-64
2022/06/30 00:54:25;;;;;;;14.20;12.80;;;;;;;20.34;70.33;99656.65;213666;1274;141334;-65
2022/06/30 00:59:32;;;;;;;13.10;11.70;;;;;;;20.27;70.31;99659.05;214083;1274;140341;-64
2022/06/30 01:04:39;;;;;;;16.10;13.30;;;;;;;20.20;70.71;99655.01;214472;1274;140870;-64
2022/06/30 01:15:15;;;;;;;21.10;18.20;;;;;;;20.13;70.86;99643.91;213529;1274;141558;-65
2022/06/30 01:20:30;;;;;;;14.80;13.60;;;;;;;20.08;70.96;99622.20;213346;1274;142680;-65
2022/06/30 01:25:34;;;;;;;16.90;15.30;;;;;;;19.93;70.97;99611.80;213943;1274;141567;-64
2022/06/30 01:30:40;;;;;;;16.00;14.40;;;;;;;19.87;71.15;99613.08;213720;1274;141808;-64
2022/06/30 01:35:44;;;;;;;16.20;14.60;;;;;;;19.85;71.37;99608.73;214222;1274;142101;-65
2022/06/30 01:40:49;;;;;;;19.90;15.40;;;;;;;19.83;71.49;99602.91;213663;1274;142625;-63
2022/06/30 01:45:54;;;;;;;16.50;15.00;;;;;;;19.79;71.72;99602.67;214974;1273;141055;-64
2022/06/30 01:50:57;;;;;;;20.20;16.20;;;;;;;19.78;71.87;99598.13;215012;1274;141729;-65
2022/06/30 01:56:01;;;;;;;16.20;13.10;;;;;;;19.79;71.92;99602.98;215889;1274;142627;-66
2022/06/30 02:01:05;;;;;;;15.40;12.40;;;;;;;19.83;72.10;99608.02;215957;1274;142191;-63
2022/06/30 02:06:09;;;;;;;15.20;13.10;;;;;;;19.88;72.09;99604.38;215909;1274;142007;-67
2022/06/30 02:11:14;;;;;;;14.50;13.20;;;;;;;19.87;72.13;99604.67;215428;1274;140794;-65
2022/06/30 02:16:18;;;;;;;16.10;13.10;;;;;;;19.83;72.05;99604.48;216182;1274;140871;-65
2022/06/30 02:21:23;;;;;;;15.10;13.60;;;;;;;19.86;72.35;99611.42;215833;1274;140848;-65
2022/06/30 02:26:28;;;;;;;16.10;13.70;;;;;;;19.90;72.51;99619.93;215434;1274;141066;-64
2022/06/30 02:31:31;;;;;;;15.50;13.90;;;;;;;19.94;72.67;99665.14;214147;1274;140937;-64
2022/06/30 02:36:36;;;;;;;14.00;12.80;;;;;;;19.82;72.70;99763.95;214534;1273;140217;-64
2022/06/30 02:41:41;;;;;;;13.40;12.10;;;;;;;19.69;73.16;99775.48;213865;1273;141593;-64
2022/06/30 02:46:48;;;;;;;14.50;12.90;;;;;;;19.70;73.45;99745.23;213559;1274;140510;-65
2022/06/30 02:51:52;;;;;;;17.00;15.10;;;;;;;19.75;73.72;99779.13;214132;1274;141108;-65
2022/06/30 02:56:56;;;;;;;18.10;14.30;;;;;;;19.84;73.87;99750.42;213754;1274;141343;-65
2022/06/30 03:02:01;;;;;;;15.80;14.50;;;;;;;19.94;74.13;99767.08;213391;1274;141231;-66
2022/06/30 03:07:05;;;;;;;18.50;16.00;;;;;;;20.06;74.36;99761.48;213171;1274;140203;-65
2022/06/30 03:12:10;;;;;;;15.50;14.00;;;;;;;20.10;74.48;99752.91;213358;1274;140980;-65
2022/06/30 03:17:15;;;;;;;15.70;14.30;;;;;;;20.11;74.76;99758.97;213320;1275;210444;-65
2022/06/30 03:22:20;;;;;;;16.10;12.90;;;;;;;20.09;74.74;99738.36;213972;1274;141549;-65
2022/06/30 03:27:25;;;;;;;15.70;13.30;;;;;;;20.07;75.02;99756.32;213424;1274;142532;-64
2022/06/30 03:32:29;;;;;;;13.20;12.10;;;;;;;20.07;75.11;99744.52;214784;1274;141549;-65
2022/06/30 03:37:34;;;;;;;15.10;13.60;;;;;;;20.06;75.17;99748.00;213502;1274;141258;-64
2022/06/30 03:42:40;;;;;;;13.20;11.90;;;;;;;20.03;75.17;99733.54;214637;1274;142508;-65
2022/06/30 03:47:45;;;;;;;16.40;13.70;;;;;;;19.98;75.34;99723.83;214418;1275;142342;-65
2022/06/30 03:52:49;;;;;;;15.30;13.80;;;;;;;20.00;75.39;99746.74;214665;1273;142609;-65
2022/06/30 03:57:54;;;;;;;14.80;12.90;;;;;;;20.04;75.62;99747.33;213617;1274;233061;-64
2022/06/30 04:02:58;;;;;;;12.80;11.70;;;;;;;20.05;75.69;99750.44;215964;1274;142692;-65
2022/06/30 04:08:04;;;;;;;14.10;12.80;;;;;;;20.06;75.56;99761.15;215808;1274;141244;-65
2022/06/30 04:13:09;;;;;;;12.50;11.40;;;;;;;20.07;75.73;99743.71;215454;1276;141694;-65
2022/06/30 04:18:14;;;;;;;16.20;14.60;;;;;;;20.14;75.82;99730.39;216050;1274;142019;-65
2022/06/30 04:23:20;;;;;;;14.20;12.90;;;;;;;20.30;75.67;99725.42;214432;1274;141508;-65
2022/06/30 04:28:25;;;;;;;13.70;12.40;;;;;;;20.43;75.75;99748.83;214837;1274;140165;-64
2022/06/30 04:33:30;;;;;;;15.20;13.20;;;;;;;20.57;75.53;99764.98;213957;1274;141278;-65
2022/06/30 04:38:35;;;;;;;15.10;13.40;;;;;;;20.66;75.29;99752.83;214263;1274;140971;-65
2022/06/30 04:43:40;;;;;;;15.50;13.50;;;;;;;20.85;75.13;99759.82;214727;1274;141454;-65
2022/06/30 04:48:45;;;;;;;14.20;12.30;;;;;;;21.00;74.84;99740.00;214658;1274;140671;-65
2022/06/30 04:53:50;;;;;;;13.40;12.20;;;;;;;21.16;74.56;99738.28;213649;1274;140201;-65
2022/06/30 04:58:56;;;;;;;14.50;13.00;;;;;;;21.25;74.28;99739.91;214466;1274;141969;-64
2022/06/30 05:04:01;;;;;;;19.80;13.40;;;;;;;21.53;73.89;99742.05;213893;1274;141663;-65
2022/06/30 05:09:05;;;;;;;15.30;12.80;;;;;;;21.95;73.42;99741.46;213728;1274;140941;-65
2022/06/30 05:14:10;;;;;;;13.40;12.00;;;;;;;22.52;72.57;99725.64;213147;1274;140501;-64
2022/06/30 05:19:15;;;;;;;12.90;11.80;;;;;;;23.69;70.87;99718.02;214196;1274;139633;-65
2022/06/30 05:29:44;;;;;;;12.00;10.90;;;;;;;26.46;66.21;99709.33;214018;1274;140094;-64
2022/06/30 05:34:49;;;;;;;11.80;10.90;;;;;;;27.35;64.15;99715.25;214773;1274;140029;-64
2022/06/30 05:39:54;;;;;;;11.80;10.60;;;;;;;28.18;62.32;99721.25;214648;1274;141285;-65
2022/06/30 05:44:58;;;;;;;10.30;9.50;;;;;;;28.50;60.97;99727.61;213473;1274;140184;-64
2022/06/30 05:50:02;;;;;;;12.50;11.20;;;;;;;28.60;59.78;99729.58;214474;1274;140121;-64
2022/06/30 05:55:07;;;;;;;12.70;11.30;;;;;;;28.70;59.26;99716.73;214223;1274;140431;-64
2022/06/30 06:00:11;;;;;;;12.60;11.40;;;;;;;29.30;58.48;99723.36;215039;1274;140758;-64
2022/06/30 06:05:15;;;;;;;13.60;12.50;;;;;;;29.22;57.77;99725.16;216097;1274;140230;-65
2022/06/30 06:10:19;;;;;;;13.40;12.20;;;;;;;28.88;57.39;99718.11;215541;1274;141335;-64
2022/06/30 06:16:19;;;;;;;14.10;12.80;;;;;;;28.68;57.27;99720.46;216383;1274;140868;-64
2022/06/30 06:21:23;;;;;;;14.30;13.10;;;;;;;28.67;57.62;99708.52;215972;1274;142962;-65
2022/06/30 06:26:29;;;;;;;14.70;13.40;;;;;;;27.87;57.62;99709.27;215718;1274;140802;-65
2022/06/30 06:31:38;;;;;;;18.50;14.60;;;;;;;27.05;58.43;99691.67;214585;1274;141196;-65
2022/06/30 06:36:43;;;;;;;15.10;13.90;;;;;;;26.46;59.44;99680.95;214614;1274;141153;-65
2022/06/30 06:41:47;;;;;;;15.50;14.10;;;;;;;26.16;59.92;99672.20;214548;1274;140720;-63
2022/06/30 06:46:51;;;;;;;15.70;14.10;;;;;;;26.23;60.76;99655.11;214591;1275;140053;-65
2022/06/30 06:51:55;;;;;;;16.00;14.40;;;;;;;26.81;60.64;99656.95;214347;1274;139613;-65
2022/06/30 06:56:58;;;;;;;15.60;14.00;;;;;;;26.87;60.26;99657.15;214272;1274;140828;-64
2022/06/30 07:02:02;;;;;;;18.20;14.70;;;;;;;26.77;60.31;99665.89;214044;1274;140721;-64
2022/06/30 07:07:06;;;;;;;17.90;16.10;;;;;;;26.74;60.54;99669.33;213304;1274;141867;-64
2022/06/30 07:12:10;;;;;;;17.00;15.00;;;;;;;26.89;60.66;99659.30;213510;1274;143564;-64
2022/06/30 07:17:14;;;;;;;17.00;15.50;;;;;;;27.75;60.52;99652.39;213230;1274;140655;-64
2022/06/30 07:22:21;;;;;;;17.40;14.50;;;;;;;28.36;59.33;99654.02;213187;1273;142409;-64
2022/06/30 07:27:27;;;;;;;13.90;12.80;;;;;;;28.72;58.99;99657.77;213114;1273;141143;-64
2022/06/30 07:32:31;;;;;;;;;;;;;;;28.88;58.47;99660.34;214749;1274;141653;-64
2022/06/30 07:37:40;;;;;;;13.50;12.00;;;;;;;29.03;57.85;99662.26;213807;1274;126685;-64
2022/06/30 07:42:44;;;;;;;15.10;13.50;;;;;;;29.64;58.15;99667.48;214567;1274;140415;-64
2022/06/30 07:47:53;;;;;;;15.90;13.80;;;;;;;30.32;57.42;99663.13;214683;1274;141972;-65
2022/06/30 07:52:59;;;;;;;12.90;11.80;;;;;;;30.80;55.97;99650.98;214814;1274;140401;-65
2022/06/30 07:58:03;;;;;;;13.70;12.70;;;;;;;31.13;55.25;99646.31;215637;1274;140935;-65
2022/06/30 08:03:06;;;;;;;11.20;10.20;;;;;;;31.44;54.47;99640.16;216048;1274;139924;-65
2022/06/30 08:08:10;;;;;;;12.40;11.20;;;;;;;31.57;54.01;99633.44;216029;1274;140079;-64
2022/06/30 08:13:13;;;;;;;13.80;12.30;;;;;;;31.58;53.44;99636.45;215996;1274;140345;-65
2022/06/30 08:18:17;;;;;;;12.30;11.10;;;;;;;31.55;53.02;99641.53;215870;1274;140052;-65
2022/06/30 08:23:20;;;;;;;17.40;15.80;;;;;;;31.56;52.76;99643.19;214722;1274;140228;-65
2022/06/30 08:28:24;;;;;;;15.30;14.10;;;;;;;31.76;52.54;99658.00;214684;1274;139966;-64
2022/06/30 08:33:28;;;;;;;12.20;11.20;;;;;;;32.04;52.55;99660.63;212896;1276;141243;-64
2022/06/30 08:38:32;;;;;;;13.20;12.10;;;;;;;31.93;52.15;99657.84;213133;1275;142037;-64
2022/06/30 08:43:36;;;;;;;13.60;12.40;;;;;;;32.27;53.12;99653.98;213949;1274;141559;-64
2022/06/30 08:48:40;;;;;;;13.80;12.50;;;;;;;32.58;52.74;99655.86;214249;1274;141267;-64
2022/06/30 08:53:57;;;;;;;12.40;11.50;;;;;;;32.75;51.82;99652.83;214675;1274;141017;-65
2022/06/30 08:59:05;;;;;;;16.70;14.00;;;;;;;32.51;51.11;99655.50;213452;1274;143134;-65
2022/06/30 09:04:12;;;;;;;13.30;12.20;;;;;;;32.64;51.31;99661.73;213588;1274;141181;-65
2022/06/30 09:09:18;;;;;;;14.00;12.70;;;;;;;32.70;50.98;99660.84;213995;1274;141235;-64
2022/06/30 09:14:40;;;;;;;14.00;12.70;;;;;;;32.26;50.50;99660.41;213373;1274;140908;-64
2022/06/30 09:19:57;;;;;;;14.10;12.00;;;;;;;32.28;51.70;99656.05;214005;1274;140839;-65
2022/06/30 09:25:03;;;;;;;13.10;11.90;;;;;;;32.41;51.57;99653.30;213301;1275;144057;-65
2022/06/30 09:30:13;;;;;;;14.10;12.70;;;;;;;32.37;51.34;99649.56;214078;1274;141279;-65
2022/06/30 09:35:22;;;;;;;14.50;13.30;;;;;;;32.34;50.71;99649.25;214289;1274;140902;-65
2022/06/30 09:41:04;;;;;;;15.60;13.70;;;;;;;32.22;51.14;99644.32;214708;1273;140212;-65
2022/06/30 09:46:06;;;;;;;14.60;13.30;;;;;;;32.33;50.94;99641.98;214157;1274;142021;-65
2022/06/30 09:51:12;;;;;;;23.20;14.20;;;;;;;32.37;50.53;99643.89;213944;1274;141084;-65
2022/06/30 09:56:16;;;;;;;;;;;;;;;32.18;50.38;99638.53;215867;1274;141102;-66
2022/06/30 10:01:20;;;;;;;16.50;15.00;;;;;;;32.36;51.17;99632.20;216123;1274;125901;-68
2022/06/30 10:06:25;;;;;;;19.50;15.50;;;;;;;32.79;50.68;99625.41;214149;1274;141660;-65
2022/06/30 10:11:29;;;;;;;14.40;13.10;;;;;;;32.86;50.18;99624.42;215701;1274;141635;-66
2022/06/30 10:16:34;;;;;;;13.90;12.90;;;;;;;33.01;50.05;99613.36;216067;1274;140385;-66
2022/06/30 10:21:41;;;;;;;15.20;13.90;;;;;;;33.17;50.06;99609.71;215679;1274;141670;-68
2022/06/30 10:32:45;;;;;;;15.70;14.20;;;;;;;33.54;49.67;99603.53;215325;1274;139987;-66
2022/06/30 10:37:52;;;;;;;13.50;12.30;;;;;;;33.69;48.86;99605.66;214109;1274;140788;-66
2022/06/30 10:42:58;;;;;;;13.80;12.90;;;;;;;33.85;48.29;99606.13;213136;1274;140995;-65
2022/06/30 10:48:07;;;;;;;10.40;9.60;;;;;;;33.79;47.62;99599.38;214876;1274;140447;-66
2022/06/30 10:53:17;;;;;;;14.10;12.80;;;;;;;33.85;47.45;99590.95;213180;1275;140345;-65
2022/06/30 10:58:22;;;;;;;12.60;11.40;;;;;;;33.94;46.76;99595.52;213363;1275;140467;-65
2022/06/30 11:03:33;;;;;;;11.50;10.50;;;;;;;34.05;46.38;99591.96;214678;1274;139869;-65
2022/06/30 11:08:47;;;;;;;11.40;10.50;;;;;;;33.94;46.03;99582.96;213435;1274;141144;-65
2022/06/30 11:14:07;;;;;;;11.90;11.00;;;;;;;33.64;45.67;99575.27;214144;1274;142127;-65
2022/06/30 11:19:22;;;;;;;13.00;11.10;;;;;;;33.60;46.12;99567.76;213555;1274;139816;-65
2022/06/30 11:24:28;;;;;;;15.30;14.00;;;;;;;33.84;45.70;99564.23;214457;1274;140929;-65
2022/06/30 11:29:32;;;;;;;15.20;12.00;;;;;;;34.09;45.89;99561.85;214178;1275;140647;-64
2022/06/30 11:34:38;;;;;;;11.60;10.60;;;;;;;34.22;45.39;99562.79;214368;1274;139976;-64
2022/06/30 11:39:41;;;;;;;11.30;10.20;;;;;;;34.19;44.56;99564.37;214828;1274;139917;-66
2022/06/30 11:44:45;;;;;;;10.80;9.80;;;;;;;34.15;44.30;99562.48;213616;1274;141612;-65
2022/06/30 11:49:50;;;;;;;10.20;9.30;;;;;;;34.10;44.60;99562.02;214232;1274;141199;-65
2022/06/30 11:54:57;;;;;;;10.10;9.20;;;;;;;34.28;44.22;99562.15;213933;1274;140505;-65
2022/06/30 12:00:10;;;;;;;10.70;9.60;;;;;;;34.41;43.93;99557.15;214351;1274;141866;-65
2022/06/30 12:05:18;;;;;;;13.30;12.20;;;;;;;34.30;43.56;99557.07;215866;1274;140636;-65
2022/06/30 12:10:26;;;;;;;12.00;10.80;;;;;;;34.40;43.42;99554.30;216103;1274;140700;-68
2022/06/30 12:15:36;;;;;;;11.20;10.40;;;;;;;34.57;43.82;99540.09;214658;1274;141092;-65
2022/06/30 12:20:47;;;;;;;10.80;10.10;;;;;;;34.44;42.83;99536.89;215964;1274;140210;-66
2022/06/30 12:25:57;;;;;;;10.60;9.90;;;;;;;34.23;43.12;99536.39;214952;1274;140632;-65
2022/06/30 12:31:04;;;;;;;11.40;10.30;;;;;;;34.18;42.85;99533.39;214213;1274;140796;-65
2022/06/30 12:36:14;;;;;;;10.90;9.90;;;;;;;34.35;42.81;99525.21;214824;1274;141709;-65
2022/06/30 12:41:26;;;;;;;11.50;10.30;;;;;;;34.36;42.61;99515.02;214614;1274;140560;-65
2022/06/30 12:46:41;;;;;;;10.70;9.60;;;;;;;34.28;42.78;99513.28;212603;1275;934278;-65
2022/06/30 12:51:49;;;;;;;12.50;11.30;;;;;;;34.35;42.47;99507.83;213761;1274;140035;-65
2022/06/30 12:57:06;;;;;;;10.30;9.40;;;;;;;34.43;42.41;99497.30;213408;1274;140532;-65
2022/06/30 13:02:16;;;;;;;11.70;10.80;;;;;;;34.32;41.97;99499.45;213234;1274;139561;-65
2022/06/30 13:07:22;;;;;;;14.50;11.90;;;;;;;34.20;42.14;99501.77;213382;1274;140058;-66
2022/06/30 13:12:27;;;;;;;17.60;11.10;;;;;;;34.35;42.27;99496.67;213564;1274;141787;-65
2022/06/30 13:17:31;;;;;;;10.90;9.90;;;;;;;34.53;42.12;99497.25;213207;1275;139585;-63
2022/06/30 13:22:35;;;;;;;;;;;;;;;34.31;41.84;99497.02;214252;1274;140197;-64
2022/06/30 13:27:39;;;;;;;10.20;9.30;;;;;;;34.26;42.66;99493.13;214478;1275;125739;-65
2022/06/30 13:32:44;;;;;;;9.10;8.30;;;;;;;34.30;42.09;99485.06;213726;1274;139373;-64
2022/06/30 13:37:47;;;;;;;10.40;9.50;;;;;;;34.37;41.72;99486.15;214731;1274;139717;-65
2022/06/30 13:42:54;;;;;;;11.20;10.20;;;;;;;34.18;41.28;99490.88;214189;1274;139285;-64
2022/06/30 13:48:00;;;;;;;12.60;11.40;;;;;;;33.92;41.63;99495.02;214319;1274;139960;-65
2022/06/30 13:53:05;;;;;;;;;;;;;;;33.43;42.10;99493.67;214757;1274;140765;-65
2022/06/30 13:58:12;;;;;;;9.30;8.60;;;;;;;33.20;42.38;99483.69;215852;1274;126533;-64
2022/06/30 14:03:17;;;;;;;;;;;;;;;33.16;42.71;99485.58;215552;1274;140390;-64
2022/06/30 14:08:22;;;;;;;12.70;11.60;;;;;;;33.10;43.26;99485.02;215893;1274;126915;-63
2022/06/30 14:13:27;;;;;;;12.50;11.40;;;;;;;33.38;43.26;99483.02;215974;1274;140598;-64
2022/06/30 14:18:32;;;;;;;13.10;11.50;;;;;;;33.64;42.83;99478.27;215942;1274;140149;-64
2022/06/30 14:23:37;;;;;;;16.10;10.40;;;;;;;33.92;43.34;99465.56;215992;1274;140951;-65
2022/06/30 14:28:42;;;;;;;11.30;10.40;;;;;;;33.77;42.81;99465.33;215886;1273;140552;-66
2022/06/30 14:33:45;;;;;;;12.20;11.00;;;;;;;33.44;43.06;99458.64;215452;1274;140591;-65
2022/06/30 14:38:49;;;;;;;11.10;10.20;;;;;;;33.15;43.57;99458.98;214407;1275;140584;-65
2022/06/30 14:43:55;;;;;;;12.80;10.50;;;;;;;32.96;43.78;99466.85;213947;1274;140659;-65
2022/06/30 14:48:58;;;;;;;21.40;9.70;;;;;;;32.68;44.06;99479.21;214881;1274;140139;-65
2022/06/30 14:54:23;;;;;;;11.50;10.60;;;;;;;32.37;44.77;99487.83;213706;1274;140739;-65
2022/06/30 14:59:29;;;;;;;13.20;12.00;;;;;;;32.21;45.94;99475.84;214308;1274;139546;-66
2022/06/30 15:04:34;;;;;;;14.00;12.40;;;;;;;32.04;47.06;99450.92;214743;1274;140513;-65
2022/06/30 15:09:38;;;;;;;12.60;11.60;;;;;;;31.87;48.82;99458.45;213613;1274;140738;-64
2022/06/30 15:14:44;;;;;;;14.20;12.30;;;;;;;31.60;50.25;99476.91;214206;1274;141768;-64
2022/06/30 15:19:48;;;;;;;12.30;11.20;;;;;;;31.27;51.26;99479.37;214306;1273;141340;-65
2022/06/30 15:24:52;;;;;;;14.00;12.60;;;;;;;30.95;52.33;99480.52;213291;1274;140983;-64
2022/06/30 15:29:56;;;;;;;12.60;11.40;;;;;;;30.57;52.71;99488.73;213805;1274;141312;-64
2022/06/30 15:35:00;;;;;;;15.20;13.00;;;;;;;30.03;53.45;99495.04;213246;1275;141681;-64
2022/06/30 15:40:15;;;;;;;12.30;11.10;;;;;;;29.61;54.57;99526.16;214752;1274;141236;-64
2022/06/30 15:45:24;;;;;;;7.70;7.10;;;;;;;28.88;52.52;99531.48;214178;1274;225441;-65
2022/06/30 15:50:29;;;;;;;10.30;6.80;;;;;;;28.25;51.47;99504.27;214967;1274;140537;-65
2022/06/30 15:55:34;;;;;;;7.10;6.20;;;;;;;27.93;51.96;99494.11;215954;1274;140592;-66
2022/06/30 16:00:38;;;;;;;7.50;6.40;;;;;;;27.73;52.27;99526.67;215970;1274;140796;-65
2022/06/30 16:05:43;;;;;;;8.10;7.40;;;;;;;27.54;52.58;99552.15;214108;1274;139318;-65
2022/06/30 16:10:48;;;;;;;12.90;8.80;;;;;;;27.28;53.07;99547.08;215894;1274;140264;-65
2022/06/30 16:15:56;;;;;;;11.60;8.90;;;;;;;27.12;53.91;99531.89;216029;1274;140270;-62
2022/06/30 16:21:00;;;;;;;10.40;9.30;;;;;;;27.10;54.46;99529.33;215821;1274;140053;-66
2022/06/30 16:26:05;;;;;;;9.70;8.70;;;;;;;27.08;54.84;99508.40;215795;1274;140677;-65
2022/06/30 16:31:18;;;;;;;11.00;9.40;;;;;;;27.00;55.54;99495.91;214992;1274;139435;-65
2022/06/30 16:36:25;;;;;;;10.20;9.10;;;;;;;26.73;56.16;99481.39;214106;1276;139883;-66
2022/06/30 16:41:36;;;;;;;11.30;8.90;;;;;;;26.70;57.57;99470.38;214326;1274;140565;-63
2022/06/30 16:46:43;;;;;;;9.90;8.80;;;;;;;26.66;58.25;99471.41;214474;1274;140655;-65
2022/06/30 16:51:52;;;;;;;10.30;9.40;;;;;;;26.51;58.24;99481.33;213849;1274;140463;-64
2022/06/30 16:57:00;;;;;;;12.60;9.70;;;;;;;26.54;58.55;99479.13;213665;1274;140969;-64
2022/06/30 17:02:05;;;;;;;11.90;9.40;;;;;;;26.61;58.99;99478.38;213005;1275;142215;-64
2022/06/30 17:07:11;;;;;;;;;;;;;;;26.64;59.20;99472.69;213769;1274;140313;-63
2022/06/30 17:12:15;;;;;;;11.40;9.00;;;;;;;26.65;59.53;99461.95;213765;1274;127571;-63
2022/06/30 17:17:19;;;;;;;15.80;9.90;;;;;;;26.67;59.16;99456.59;214170;1274;140250;-63
2022/06/30 17:22:25;;;;;;;;;;;;;;;26.65;59.46;99458.88;214718;1274;140325;-64
2022/06/30 17:27:30;;;;;;;11.50;9.90;;;;;;;26.53;59.99;99455.63;215149;1274;127004;-63
2022/06/30 17:32:34;;;;;;;11.50;8.90;;;;;;;26.48;59.99;99454.54;214829;1273;140840;-64
2022/06/30 17:37:38;;;;;;;12.50;11.00;;;;;;;26.45;60.24;99458.20;213694;1275;139898;-63
2022/06/30 17:42:42;;;;;;;10.70;9.70;;;;;;;26.41;60.81;99443.08;214512;1274;140501;-62
2022/06/30 17:47:46;;;;;;;13.00;10.30;;;;;;;26.37;61.49;99424.07;213844;1275;141082;-64
2022/06/30 17:52:55;;;;;;;10.70;9.70;;;;;;;26.36;62.15;99430.73;214541;1274;140432;-65
2022/06/30 17:57:59;;;;;;;15.30;10.00;;;;;;;26.31;62.23;99453.08;214417;1274;140594;-64
2022/06/30 18:03:03;;;;;;;14.30;9.90;;;;;;;26.13;62.33;99476.96;214982;1274;140754;-64
2022/06/30 18:13:35;;;;;;;10.40;9.50;;;;;;;25.99;62.80;99508.21;215700;1274;141153;-66
2022/06/30 18:18:48;;;;;;;13.40;9.80;;;;;;;25.96;62.93;99492.91;215820;1274;141818;-64
2022/06/30 18:23:52;;;;;;;15.30;10.00;;;;;;;26.01;63.10;99478.07;216010;1274;140465;-63
2022/06/30 18:28:56;;;;;;;10.60;9.70;;;;;;;25.99;63.09;99469.74;215605;1274;139905;-64
2022/06/30 18:34:00;;;;;;;12.70;10.00;;;;;;;25.91;63.12;99479.10;215536;1274;140452;-65
2022/06/30 18:39:31;;;;;;;12.70;10.60;;;;;;;25.86;63.10;99479.48;214793;1274;140876;-64
2022/06/30 18:44:36;;;;;;;11.90;10.90;;;;;;;25.82;63.47;99470.31;215123;1274;206108;-63
2022/06/30 18:49:42;;;;;;;10.20;9.20;;;;;;;25.72;63.64;99462.21;214270;1274;220189;-63
2022/06/30 18:54:48;;;;;;;13.10;10.90;;;;;;;25.62;64.13;99470.86;214342;1274;140896;-64
2022/06/30 18:59:53;;;;;;;13.40;11.10;;;;;;;25.53;64.10;99475.58;214145;1274;141336;-63
2022/06/30 19:04:59;;;;;;;11.70;10.50;;;;;;;25.45;64.18;99471.36;213913;1274;140909;-63
2022/06/30 19:10:05;;;;;;;17.60;11.70;;;;;;;25.31;64.50;99471.92;214219;1274;140465;-63
2022/06/30 19:15:10;;;;;;;11.40;10.40;;;;;;;25.15;64.90;99476.91;213371;1274;140585;-64
2022/06/30 19:20:15;;;;;;;12.60;9.10;;;;;;;25.07;64.93;99494.63;212855;1274;141284;-64
2022/06/30 19:25:22;;;;;;;14.50;10.60;;;;;;;24.96;65.15;99502.58;213715;1274;140716;-64
2022/06/30 19:30:26;;;;;;;13.10;10.60;;;;;;;24.85;65.41;99501.13;213214;1274;140337;-65
2022/06/30 19:35:31;;;;;;;12.20;10.50;;;;;;;24.74;65.60;99499.89;214843;1274;141421;-64
2022/06/30 19:40:35;;;;;;;12.10;10.00;;;;;;;24.62;65.63;99501.14;214517;1274;140812;-65
2022/06/30 19:45:40;;;;;;;14.80;12.50;;;;;;;24.48;65.51;99506.56;214686;1274;141335;-64
2022/06/30 19:50:46;;;;;;;12.10;10.20;;;;;;;24.32;65.88;99503.17;214669;1274;141010;-65
2022/06/30 19:55:51;;;;;;;15.50;11.50;;;;;;;24.16;66.31;99497.83;215354;1274;141721;-64
2022/06/30 20:00:55;;;;;;;12.90;10.00;;;;;;;24.07;66.42;99489.50;215776;1274;141258;-63
2022/06/30 20:06:01;;;;;;;16.10;11.80;;;;;;;23.98;66.62;99493.94;215872;1274;140698;-65
2022/06/30 20:16:30;;;;;;;13.90;10.40;;;;;;;23.80;67.14;99496.45;215800;1274;140622;-65
2022/06/30 20:21:36;;;;;;;16.60;10.30;;;;;;;23.72;67.11;99489.38;215995;1274;141820;-63
2022/06/30 20:26:40;;;;;;;17.30;11.20;;;;;;;23.68;67.39;99500.40;215816;1274;140756;-65
2022/06/30 20:31:44;;;;;;;11.00;9.80;;;;;;;23.63;67.58;99503.05;215165;1274;140316;-64
2022/06/30 20:36:48;;;;;;;14.20;10.70;;;;;;;23.54;67.50;99502.31;214425;1274;140025;-64
2022/06/30 20:41:52;;;;;;;14.40;10.40;;;;;;;23.41;67.47;99505.64;215510;1274;142097;-65
2022/06/30 20:46:55;;;;;;;17.30;12.20;;;;;;;23.33;67.77;99513.75;214861;1274;152389;-64
2022/06/30 20:52:02;;;;;;;15.50;11.40;;;;;;;23.22;67.92;99527.96;214169;1274;140303;-64
2022/06/30 20:57:07;;;;;;;10.80;9.80;;;;;;;23.13;68.21;99538.79;214913;1274;140419;-64
2022/06/30 21:02:15;;;;;;;12.00;10.80;;;;;;;23.10;68.43;99538.11;214795;1274;141806;-63
2022/06/30 21:07:19;;;;;;;11.70;10.50;;;;;;;23.04;68.35;99529.14;212882;1274;141808;-63
2022/06/30 21:12:23;;;;;;;12.50;11.20;;;;;;;22.88;68.65;99513.77;213223;1274;140872;-65
2022/06/30 21:17:27;;;;;;;15.60;11.40;;;;;;;22.76;68.72;99510.67;214375;1274;140669;-64
2022/06/30 21:22:32;;;;;;;10.80;9.80;;;;;;;22.62;68.68;99501.61;212961;1274;141434;-66
2022/06/30 21:27:37;;;;;;;17.60;12.50;;;;;;;22.45;69.15;99498.48;213804;1274;140940;-64
2022/06/30 21:32:43;;;;;;;20.60;10.20;;;;;;;22.41;69.50;99500.84;214100;1274;140293;-62
2022/06/30 21:37:48;;;;;;;18.30;10.70;;;;;;;22.40;69.61;99504.96;213284;1274;144794;-63
2022/06/30 21:42:52;;;;;;;12.20;10.10;;;;;;;22.36;69.62;99552.81;213869;1274;142391;-63
2022/06/30 21:47:59;;;;;;;13.60;11.00;;;;;;;22.29;69.18;99556.18;213971;1274;142576;-63
2022/06/30 21:53:08;;;;;;;13.90;11.30;;;;;;;22.33;69.02;99585.88;214392;1274;142734;-64
2022/06/30 21:58:13;;;;;;;18.50;10.00;;;;;;;22.32;69.00;99586.64;214941;1274;141335;-63
2022/06/30 22:03:22;;;;;;;11.80;9.90;;;;;;;22.40;68.87;99592.60;214640;1274;141892;-64
2022/06/30 22:08:30;;;;;;;12.00;10.10;;;;;;;22.49;68.49;99593.33;214245;1274;141968;-67
2022/06/30 22:13:35;;;;;;;18.10;10.50;;;;;;;22.57;68.33;99599.27;215734;1274;141778;-64
2022/06/30 22:18:41;;;;;;;12.80;10.40;;;;;;;22.58;68.18;99607.58;215910;1274;141918;-64
2022/06/30 22:23:47;;;;;;;19.30;11.80;;;;;;;22.61;68.01;99606.38;215734;1274;140712;-63
2022/06/30 22:28:51;;;;;;;20.60;11.00;;;;;;;22.60;67.84;99604.60;215178;1274;140863;-64
2022/06/30 22:34:00;;;;;;;14.10;10.70;;;;;;;22.61;68.04;99587.35;215992;1274;140649;-65
2022/06/30 22:39:09;;;;;;;14.10;10.40;;;;;;;22.58;68.13;99589.13;215992;1274;140687;-64
2022/06/30 22:44:15;;;;;;;12.60;9.70;;;;;;;22.46;68.06;99583.80;214815;1274;139715;-65
2022/06/30 22:49:20;;;;;;;15.40;11.10;;;;;;;22.27;67.89;99563.79;213870;1274;141238;-63
2022/06/30 22:54:27;;;;;;;18.20;11.50;;;;;;;21.97;68.26;99556.16;215175;1274;140815;-65
2022/06/30 22:59:34;;;;;;;14.90;11.50;;;;;;;21.92;68.79;99562.90;214416;1274;139672;-62
2022/06/30 23:04:38;;;;;;;16.10;11.30;;;;;;;21.90;69.00;99559.50;214431;1274;139954;-63
2022/06/30 23:09:42;;;;;;;16.60;10.80;;;;;;;21.88;69.24;99559.66;214621;1274;140873;-64
2022/06/30 23:14:47;;;;;;;13.30;11.20;;;;;;;21.84;69.42;99571.92;213437;1274;141088;-65
2022/06/30 23:19:51;;;;;;;20.10;10.90;;;;;;;21.75;69.37;99578.72;213287;1274;141322;-65
2022/06/30 23:24:56;;;;;;;16.80;10.30;;;;;;;21.65;69.56;99592.34;214360;1274;140188;-66
2022/06/30 23:30:01;;;;;;;15.60;11.70;;;;;;;21.56;69.67;99594.49;213346;1274;140444;-65